Time;durP1;ratioP1;P1;durP2;ratioP2;P2;SDS_P1;SDS_P2;PMS_P1;PMS_P2;Temp;Humidity;BMP_temperature;BMP_pressure;BME280_temperature;BME280_humidity;BME280_pressure;Samples;Min_cycle;Max_cycle;Signal;HPM_P1;HPM_P2
2021/10/09 00:01:40;;;;;;;20.40;18.30;;;11.70;99.90;;;;;;9861192;30;20235;-84
2021/10/09 00:06:44;;;;;;;19.20;17.30;;;11.60;99.90;;;;;;9859945;30;20321;-84
2021/10/09 00:11:47;;;;;;;18.47;16.60;;;11.60;99.90;;;;;;9867355;30;20207;-83
2021/10/09 00:16:49;;;;;;;18.03;16.13;;;11.60;99.90;;;;;;9854001;29;20249;-84
2021/10/09 00:21:53;;;;;;;18.80;16.90;;;11.60;99.90;;;;;;9894813;30;20337;-84
2021/10/09 00:26:55;;;;;;;19.20;17.43;;;11.50;99.90;;;;;;9886167;29;20234;-84
2021/10/09 00:31:57;;;;;;;19.87;17.93;;;11.50;99.90;;;;;;9897032;30;20211;-84
2021/10/09 00:37:00;;;;;;;18.83;17.00;;;11.50;99.90;;;;;;9912248;29;20276;-84
2021/10/09 00:42:04;;;;;;;19.20;17.27;;;11.40;99.90;;;;;;9880756;30;20601;-84
2021/10/09 00:47:06;;;;;;;20.50;18.40;;;11.40;99.90;;;;;;9888434;29;20257;-84
2021/10/09 00:52:11;;;;;;;20.00;18.10;;;11.40;99.90;;;;;;9903631;30;20268;-84
2021/10/09 00:57:16;;;;;;;21.30;19.30;;;11.40;99.90;;;;;;9883706;29;20619;-84
2021/10/09 01:02:18;;;;;;;20.07;17.97;;;11.40;99.90;;;;;;9862662;30;20354;-84
2021/10/09 01:07:22;;;;;;;19.90;17.93;;;11.30;99.90;;;;;;9888410;29;20252;-83
2021/10/09 01:12:25;;;;;;;20.30;18.37;;;11.30;99.90;;;;;;9891979;29;20238;-84
2021/10/09 01:17:29;;;;;;;20.43;18.50;;;11.30;99.90;;;;;;9880886;29;20242;-84
2021/10/09 01:22:33;;;;;;;22.80;20.30;;;11.30;99.90;;;;;;9894485;30;20712;-84
2021/10/09 01:27:36;;;;;;;22.70;20.37;;;11.30;99.90;;;;;;9896614;29;20716;-84
2021/10/09 01:32:41;;;;;;;21.63;19.57;;;11.20;99.90;;;;;;9895680;30;20642;-84
2021/10/09 01:37:44;;;;;;;21.30;19.20;;;11.20;99.90;;;;;;9890178;29;20256;-83
2021/10/09 01:42:48;;;;;;;19.67;17.40;;;11.20;99.90;;;;;;9898092;30;20235;-84
2021/10/09 01:47:51;;;;;;;21.03;19.03;;;11.20;99.90;;;;;;9896630;29;20351;-83
2021/10/09 01:52:55;;;;;;;21.37;18.93;;;11.20;99.90;;;;;;9900344;30;20644;-84
2021/10/09 01:57:57;;;;;;;19.77;17.83;;;11.20;99.90;;;;;;9903437;29;20246;-84
2021/10/09 02:03:03;;;;;;;21.23;19.03;;;11.10;99.90;;;;;;9900486;30;20227;-84
2021/10/09 02:08:06;;;;;;;20.40;18.47;;;11.10;99.90;;;;;;9894827;29;20226;-84
2021/10/09 02:13:11;;;;;;;20.40;18.27;;;11.10;99.90;;;;;;9915106;30;20215;-83
2021/10/09 02:28:53;;;;;;;21.67;19.17;;;11.00;99.90;;;;;;9892745;29;20234;-83
2021/10/09 02:33:56;;;;;;;19.73;17.73;;;11.00;99.90;;;;;;9901203;30;20219;-84
2021/10/09 02:38:59;;;;;;;20.07;18.10;;;11.00;99.90;;;;;;9901862;30;20250;-84
2021/10/09 02:44:01;;;;;;;21.03;18.80;;;10.90;99.90;;;;;;9902850;30;20250;-84
2021/10/09 02:49:07;;;;;;;19.03;16.97;;;10.90;99.90;;;;;;9903497;30;20235;-83
2021/10/09 02:54:11;;;;;;;20.80;18.63;;;10.80;99.90;;;;;;9915948;30;20222;-84
2021/10/09 02:59:13;;;;;;;20.37;18.43;;;10.80;99.90;;;;;;9891758;30;20233;-84
2021/10/09 03:04:15;;;;;;;21.73;18.70;;;10.70;99.90;;;;;;9904896;30;20222;-83
2021/10/09 03:09:19;;;;;;;19.40;17.40;;;10.70;99.90;;;;;;9892178;30;20628;-84
2021/10/09 03:14:23;;;;;;;21.53;19.30;;;10.70;99.90;;;;;;9894218;30;20277;-84
2021/10/09 03:19:27;;;;;;;19.80;17.80;;;10.70;99.90;;;;;;9880377;30;20235;-84
2021/10/09 03:24:30;;;;;;;19.20;17.30;;;10.60;99.90;;;;;;9889896;30;20210;-83
2021/10/09 03:29:33;;;;;;;19.17;17.37;;;10.70;99.90;;;;;;9892233;30;20236;-84
2021/10/09 03:34:36;;;;;;;20.83;18.57;;;10.60;99.90;;;;;;9870928;29;20732;-84
2021/10/09 03:39:42;;;;;;;18.73;16.67;;;10.60;99.90;;;;;;9890753;30;20304;-84
2021/10/09 03:44:48;;;;;;;19.70;17.60;;;10.60;99.90;;;;;;9890808;30;20211;-84
2021/10/09 03:49:54;;;;;;;18.97;17.27;;;10.60;99.90;;;;;;9893370;30;20230;-84
2021/10/09 03:54:58;;;;;;;17.57;15.73;;;10.60;99.90;;;;;;9890410;30;20219;-83
2021/10/09 04:00:00;;;;;;;16.80;15.20;;;10.60;99.90;;;;;;9892020;30;20222;-84
2021/10/09 04:05:05;;;;;;;17.00;15.40;;;10.50;99.90;;;;;;9885381;30;20249;-84
2021/10/09 04:10:10;;;;;;;17.43;15.63;;;10.50;99.90;;;;;;9891833;30;20302;-84
2021/10/09 04:15:13;;;;;;;18.73;15.83;;;10.50;99.90;;;;;;9905446;30;20298;-84
2021/10/09 04:20:15;;;;;;;16.50;15.00;;;10.50;99.90;;;;;;9891042;30;20238;-83
2021/10/09 04:25:20;;;;;;;17.17;15.40;;;10.50;99.90;;;;;;9873625;30;20328;-84
2021/10/09 04:30:24;;;;;;;15.67;14.00;;;10.60;99.90;;;;;;9866437;30;20231;-83
2021/10/09 04:35:27;;;;;;;15.57;14.10;;;10.50;99.90;;;;;;9891446;30;20246;-84
2021/10/09 04:40:31;;;;;;;17.13;15.50;;;10.60;99.90;;;;;;9884643;24;20311;-85
2021/10/09 04:45:35;;;;;;;16.73;14.90;;;10.60;99.90;;;;;;9844556;30;20712;-84
2021/10/09 04:50:38;;;;;;;17.03;15.40;;;10.50;99.90;;;;;;9859971;30;20315;-84
2021/10/09 04:55:45;;;;;;;16.90;15.20;;;10.50;99.90;;;;;;9840707;30;20681;-85
2021/10/09 05:00:48;;;;;;;17.30;15.57;;;10.50;99.90;;;;;;9846959;30;20243;-84
2021/10/09 05:05:51;;;;;;;17.67;16.03;;;10.50;99.90;;;;;;9848461;30;20215;-85
2021/10/09 05:10:57;;;;;;;16.60;14.97;;;10.40;99.90;;;;;;9866201;30;20263;-84
2021/10/09 05:15:59;;;;;;;20.27;18.37;;;10.40;99.90;;;;;;9854203;30;20287;-85
2021/10/09 05:21:01;;;;;;;81.83;54.27;;;10.40;99.90;;;;;;9854224;30;20267;-85
2021/10/09 05:26:06;;;;;;;134.87;81.03;;;10.40;99.90;;;;;;9850864;30;20219;-83
2021/10/09 05:31:20;;;;;;;21.97;19.67;;;10.40;99.90;;;;;;9838987;30;20722;-84
2021/10/09 05:36:23;;;;;;;18.20;16.60;;;10.30;99.90;;;;;;9857678;30;20211;-83
2021/10/09 05:41:27;;;;;;;19.87;17.90;;;10.30;99.90;;;;;;9846607;30;20247;-85
2021/10/09 05:46:39;;;;;;;21.07;19.17;;;10.30;99.90;;;;;;9853309;30;20208;-84
2021/10/09 05:51:50;;;;;;;19.80;17.43;;;10.30;99.90;;;;;;9841153;30;20211;-85
2021/10/09 05:57:03;;;;;;;17.93;16.13;;;10.30;99.90;;;;;;9856420;30;20215;-84
2021/10/09 06:25:08;;;;;;;17.93;15.83;;;10.30;99.90;;;;;;9840649;30;20334;-84
2021/10/09 07:01:31;;;;;;;18.20;16.40;;;10.80;99.90;;;;;;9881613;30;20289;-85
2021/10/09 07:06:34;;;;;;;19.10;17.20;;;10.80;99.90;;;;;;9843648;30;20226;-84
2021/10/09 07:11:40;;;;;;;20.03;17.57;;;10.90;99.90;;;;;;9843212;30;20219;-85
2021/10/09 07:16:44;;;;;;;22.17;19.97;;;10.90;99.90;;;;;;9861572;30;20222;-84
2021/10/09 07:21:46;;;;;;;22.30;19.90;;;11.00;99.90;;;;;;9854183;30;20239;-85
2021/10/09 07:26:49;;;;;;;22.10;20.00;;;11.00;99.90;;;;;;9830816;30;20262;-84
2021/10/09 07:31:52;;;;;;;22.10;20.00;;;11.10;99.90;;;;;;9818154;30;20670;-86
2021/10/09 07:36:54;;;;;;;21.90;19.87;;;11.20;99.90;;;;;;9820813;30;20235;-85
2021/10/09 07:41:57;;;;;;;22.70;20.23;;;11.20;99.90;;;;;;9834944;30;20562;-85
2021/10/09 07:47:01;;;;;;;24.23;21.83;;;11.30;99.90;;;;;;9816699;30;20251;-84
2021/10/09 07:52:10;;;;;;;22.80;20.53;;;11.40;99.90;;;;;;9818369;30;20576;-84
2021/10/09 07:57:15;;;;;;;22.13;19.80;;;11.50;99.90;;;;;;9833748;30;20231;-84
2021/10/09 08:02:20;;;;;;;23.77;21.37;;;11.60;99.90;;;;;;9821784;30;20739;-84
2021/10/09 08:07:29;;;;;;;26.50;21.10;;;11.70;99.90;;;;;;9833665;30;20239;-84
2021/10/09 08:12:32;;;;;;;24.97;22.37;;;11.80;99.90;;;;;;9844623;30;20231;-84
2021/10/09 08:17:35;;;;;;;23.57;21.07;;;11.90;99.90;;;;;;9844886;30;20232;-85
2021/10/09 08:22:40;;;;;;;23.63;20.67;;;12.00;99.90;;;;;;9835415;30;20231;-84
2021/10/09 08:28:01;;;;;;;22.27;20.17;;;12.10;99.90;;;;;;9824870;30;20236;-84
2021/10/09 08:38:50;;;;;;;20.83;18.70;;;12.30;99.90;;;;;;9812818;30;20234;-84
2021/10/09 08:43:54;;;;;;;23.93;20.90;;;12.40;99.90;;;;;;9829325;30;20232;-83
2021/10/09 08:48:58;;;;;;;21.63;19.27;;;12.60;99.90;;;;;;9817305;30;20269;-83
2021/10/09 08:54:06;;;;;;;22.00;19.90;;;12.70;99.90;;;;;;9819427;30;20207;-83
2021/10/09 08:59:11;;;;;;;21.57;19.37;;;12.80;99.90;;;;;;9825414;30;20223;-83
2021/10/09 09:04:33;;;;;;;20.67;18.77;;;12.80;99.90;;;;;;9855124;30;20239;-83
2021/10/09 09:25:56;;;;;;;21.30;19.17;;;13.20;99.90;;;;;;9849261;30;20227;-84
2021/10/09 09:31:24;;;;;;;22.53;20.10;;;13.30;99.90;;;;;;9849143;30;20295;-83
2021/10/09 09:36:41;;;;;;;21.97;19.77;;;13.50;99.90;;;;;;9872692;30;20303;-84
2021/10/09 09:41:45;;;;;;;22.03;19.70;;;13.60;99.90;;;;;;9859850;30;20243;-83
2021/10/09 09:47:03;;;;;;;20.40;18.40;;;13.80;99.90;;;;;;9849784;30;20723;-83
2021/10/09 09:52:06;;;;;;;23.67;19.30;;;13.90;99.90;;;;;;9848022;30;20235;-83
2021/10/09 09:57:10;;;;;;;18.80;17.00;;;14.00;99.90;;;;;;9855469;30;20251;-83
2021/10/09 10:02:15;;;;;;;21.57;18.10;;;14.00;99.90;;;;;;9884970;30;20232;-84
2021/10/09 10:07:21;;;;;;;22.90;19.73;;;14.00;99.90;;;;;;9858676;30;20274;-83
2021/10/09 10:12:25;;;;;;;21.57;18.40;;;14.00;99.90;;;;;;9856567;30;20223;-84
2021/10/09 10:17:41;;;;;;;22.03;19.93;;;14.00;99.90;;;;;;9886168;30;20721;-83
2021/10/09 10:22:58;;;;;;;19.73;17.40;;;14.00;99.90;;;;;;9849658;30;20254;-83
2021/10/09 10:28:02;;;;;;;20.70;16.90;;;14.10;99.90;;;;;;9874291;30;20261;-83
2021/10/09 10:33:44;;;;;;;21.93;18.13;;;14.10;99.90;;;;;;9883944;30;20655;-83
2021/10/09 10:38:54;;;;;;;16.17;14.57;;;14.10;99.90;;;;;;9870586;30;20803;-83
2021/10/09 10:43:59;;;;;;;17.50;15.70;;;14.20;99.90;;;;;;9858484;30;20740;-83
2021/10/09 10:49:15;;;;;;;16.20;14.60;;;14.20;99.90;;;;;;9849243;30;20243;-83
2021/10/09 10:54:38;;;;;;;15.23;13.90;;;14.30;99.90;;;;;;9863341;30;20226;-83
2021/10/09 10:59:45;;;;;;;14.37;13.03;;;14.30;99.90;;;;;;9858428;30;20258;-84
2021/10/09 11:04:50;;;;;;;15.23;12.67;;;14.40;99.90;;;;;;9845587;30;20596;-83
2021/10/09 11:09:54;;;;;;;13.80;12.40;;;14.40;99.90;;;;;;9859257;30;20701;-85
2021/10/09 11:15:09;;;;;;;12.80;11.43;;;14.50;99.90;;;;;;9849119;30;20226;-83
2021/10/09 11:20:13;;;;;;;13.10;11.80;;;14.50;99.90;;;;;;9857920;30;20666;-84
2021/10/09 11:25:25;;;;;;;13.33;11.97;;;14.60;99.90;;;;;;9856407;30;20222;-84
2021/10/09 11:30:28;;;;;;;14.50;12.80;;;14.70;99.90;;;;;;9849469;30;20240;-84
2021/10/09 11:35:33;;;;;;;13.30;12.00;;;14.70;99.90;;;;;;9872657;30;20223;-84
2021/10/09 11:40:42;;;;;;;13.63;12.23;;;14.80;99.90;;;;;;9866863;30;20305;-84
2021/10/09 11:45:55;;;;;;;13.57;12.23;;;14.80;99.90;;;;;;9855835;30;20231;-84
2021/10/09 11:56:20;;;;;;;14.70;12.60;;;14.90;99.90;;;;;;9889695;30;20211;-84
2021/10/09 12:01:44;;;;;;;13.10;11.90;;;15.00;99.90;;;;;;9860523;30;20239;-84
2021/10/09 12:06:50;;;;;;;13.67;12.17;;;15.00;99.90;;;;;;9886045;30;20223;-84
2021/10/09 12:12:18;;;;;;;13.27;12.07;;;15.00;99.90;;;;;;9862746;30;20249;-84
2021/10/09 12:17:37;;;;;;;15.63;11.40;;;15.10;99.90;;;;;;9869586;30;20709;-84
2021/10/09 12:22:55;;;;;;;13.63;12.20;;;15.10;99.90;;;;;;9864934;30;20227;-84
2021/10/09 12:28:10;;;;;;;15.10;12.87;;;15.20;99.90;;;;;;9847470;30;20228;-84
2021/10/09 12:34:30;;;;;;;13.83;12.53;;;15.20;99.90;;;;;;9835127;30;20231;-84
2021/10/09 12:39:56;;;;;;;12.37;11.27;;;15.30;99.90;;;;;;9833436;30;20235;-84
2021/10/09 12:45:12;;;;;;;12.70;11.40;;;15.30;99.90;;;;;;9858369;30;20227;-83
2021/10/09 12:50:28;;;;;;;13.10;11.90;;;15.30;99.90;;;;;;9844727;30;20314;-84
2021/10/09 13:07:27;;;;;;;13.70;12.27;;;15.40;99.90;;;;;;10659434;27;20554;-83
2021/10/09 13:12:33;;;;;;;12.47;11.27;;;15.40;99.90;;;;;;10581454;28;20226;-85
2021/10/09 13:17:38;;;;;;;12.53;11.30;;;15.50;99.90;;;;;;10575291;28;20239;-85
2021/10/09 13:23:05;;;;;;;13.73;12.53;;;15.50;99.90;;;;;;10615836;28;20214;-85
2021/10/09 13:28:12;;;;;;;14.07;11.13;;;15.60;99.90;;;;;;10568081;28;20621;-85
2021/10/09 13:33:17;;;;;;;13.97;12.50;;;15.60;99.90;;;;;;10589921;28;20568;-85
2021/10/09 13:38:58;;;;;;;13.17;11.30;;;15.60;99.90;;;;;;10579646;28;20218;-85
2021/10/09 13:44:03;;;;;;;12.07;10.97;;;15.60;99.90;;;;;;10587153;28;20221;-85
2021/10/09 13:49:06;;;;;;;12.37;10.97;;;15.60;99.90;;;;;;10577682;28;20219;-86
2021/10/09 13:54:08;;;;;;;15.73;11.77;;;15.60;99.90;;;;;;10594317;27;20187;-85
2021/10/09 13:59:12;;;;;;;13.73;10.80;;;15.60;99.90;;;;;;10566586;28;20225;-85
2021/10/09 14:04:14;;;;;;;12.63;11.40;;;15.60;99.90;;;;;;10577409;28;20659;-86
2021/10/09 14:09:16;;;;;;;12.13;10.70;;;15.60;99.90;;;;;;10590443;28;20370;-86
2021/10/09 14:14:20;;;;;;;12.10;10.73;;;15.60;99.90;;;;;;10606667;27;20187;-86
2021/10/09 14:19:22;;;;;;;10.93;10.00;;;15.60;99.90;;;;;;10541905;28;20223;-86
2021/10/09 14:24:24;;;;;;;12.60;11.30;;;15.60;99.90;;;;;;10560763;28;20253;-85
2021/10/09 14:29:28;;;;;;;11.10;10.10;;;15.70;99.90;;;;;;10551336;28;20235;-85
2021/10/09 14:34:30;;;;;;;12.33;10.50;;;15.70;99.90;;;;;;10555210;28;20324;-86
2021/10/09 14:39:32;;;;;;;11.37;10.37;;;15.70;99.90;;;;;;10536857;28;20238;-86
2021/10/09 14:44:36;;;;;;;11.83;10.60;;;15.70;99.90;;;;;;10540832;28;20688;-86
2021/10/09 14:49:45;;;;;;;11.30;10.27;;;15.70;99.90;;;;;;10533530;28;20306;-87
2021/10/09 14:55:07;;;;;;;11.00;10.00;;;15.80;99.90;;;;;;10529231;28;20620;-87
2021/10/09 15:16:32;;;;;;;11.60;10.07;;;15.90;99.90;;;;;;10552428;28;20576;-86
2021/10/09 15:21:35;;;;;;;10.47;9.50;;;16.00;99.10;;;;;;10548112;28;20254;-86
2021/10/09 15:26:37;;;;;;;12.37;10.00;;;16.00;99.90;;;;;;10535385;28;20234;-86
2021/10/09 15:31:40;;;;;;;9.57;8.67;;;16.10;99.90;;;;;;10550510;28;20667;-86
2021/10/09 15:36:42;;;;;;;10.37;9.37;;;16.00;99.90;;;;;;10528517;28;20195;-86
2021/10/09 15:41:45;;;;;;;10.83;9.83;;;16.00;99.90;;;;;;10566478;28;20191;-86
2021/10/09 15:46:51;;;;;;;11.40;10.20;;;16.00;99.90;;;;;;10542012;28;20227;-86
2021/10/09 15:51:53;;;;;;;10.67;9.57;;;15.90;99.90;;;;;;10579774;28;20226;-86
2021/10/09 15:56:55;;;;;;;9.83;8.80;;;15.90;99.90;;;;;;10562077;28;20210;-86
2021/10/09 16:01:58;;;;;;;11.87;9.90;;;15.80;99.90;;;;;;10530659;28;20298;-86
2021/10/09 16:07:00;;;;;;;11.97;9.50;;;15.70;99.90;;;;;;10575556;28;20264;-86
2021/10/09 16:12:03;;;;;;;10.13;9.07;;;15.70;99.90;;;;;;10566138;28;20675;-86
2021/10/09 16:17:25;;;;;;;10.17;9.17;;;15.60;99.90;;;;;;10561655;28;20216;-86
2021/10/09 16:22:27;;;;;;;11.33;9.50;;;15.50;99.90;;;;;;10576912;28;20233;-85
2021/10/09 16:27:30;;;;;;;9.13;8.23;;;15.40;99.90;;;;;;10564147;28;20219;-85
2021/10/09 16:32:33;;;;;;;10.07;9.03;;;15.30;99.90;;;;;;10570498;28;20303;-86
2021/10/09 16:37:35;;;;;;;15.10;10.30;;;15.20;99.90;;;;;;10578671;28;20219;-85
2021/10/09 16:42:37;;;;;;;12.03;10.93;;;15.10;99.90;;;;;;10584860;28;20714;-86
2021/10/09 16:47:41;;;;;;;13.67;12.47;;;15.00;99.90;;;;;;10573507;28;20264;-86
2021/10/09 16:52:43;;;;;;;13.03;11.80;;;14.80;99.90;;;;;;10567868;28;20290;-86
2021/10/09 16:57:45;;;;;;;13.43;11.97;;;14.70;99.90;;;;;;10560414;28;20269;-86
2021/10/09 17:02:49;;;;;;;13.93;12.37;;;14.50;99.90;;;;;;10519272;28;20298;-86
2021/10/09 17:07:54;;;;;;;12.60;11.40;;;14.40;99.90;;;;;;10551180;28;20233;-85
2021/10/09 17:12:58;;;;;;;14.03;12.57;;;14.30;99.90;;;;;;10548534;28;20206;-85
2021/10/09 17:18:02;;;;;;;12.13;11.03;;;14.20;99.90;;;;;;10550650;28;20775;-86
2021/10/09 17:23:04;;;;;;;17.83;12.40;;;14.10;99.90;;;;;;10534041;28;20308;-86
2021/10/09 17:28:06;;;;;;;12.40;11.20;;;14.00;99.90;;;;;;10539232;28;20215;-85
2021/10/09 17:33:09;;;;;;;12.83;11.60;;;13.90;99.90;;;;;;10548543;28;20196;-86
2021/10/09 17:38:11;;;;;;;13.10;11.80;;;13.90;99.90;;;;;;10546352;28;20230;-86
2021/10/09 17:43:13;;;;;;;13.33;11.43;;;13.80;99.90;;;;;;10525689;28;20214;-85
2021/10/09 17:48:18;;;;;;;13.03;11.30;;;13.70;99.90;;;;;;10541929;28;20227;-86
2021/10/09 17:53:20;;;;;;;14.43;13.13;;;13.60;99.90;;;;;;10567145;28;20199;-85
2021/10/09 17:58:22;;;;;;;15.33;13.73;;;13.60;99.90;;;;;;10555152;28;20246;-86
2021/10/09 18:03:26;;;;;;;16.40;14.70;;;13.50;99.90;;;;;;10578738;28;20199;-85
2021/10/09 18:08:29;;;;;;;13.67;12.37;;;13.50;99.90;;;;;;10562458;28;20688;-86
2021/10/09 18:13:32;;;;;;;15.47;13.87;;;13.40;99.90;;;;;;10563997;28;20281;-86
2021/10/09 18:18:35;;;;;;;13.70;12.40;;;13.40;99.90;;;;;;10557666;28;20698;-85
2021/10/09 18:23:37;;;;;;;16.07;14.53;;;13.30;99.90;;;;;;10570904;28;20298;-86
2021/10/09 18:28:39;;;;;;;15.93;13.60;;;13.30;99.90;;;;;;10551428;28;20247;-85
2021/10/09 18:33:43;;;;;;;15.40;13.80;;;13.30;99.90;;;;;;10568624;28;20199;-86
2021/10/09 18:38:45;;;;;;;18.83;14.10;;;13.20;99.90;;;;;;10573441;28;20211;-86
2021/10/09 18:43:48;;;;;;;13.67;12.37;;;13.20;99.90;;;;;;10514951;28;20203;-85
2021/10/09 18:48:51;;;;;;;13.10;12.00;;;13.20;99.90;;;;;;10545601;28;20683;-85
2021/10/09 18:53:54;;;;;;;13.23;11.93;;;13.10;99.90;;;;;;10523594;28;20195;-85
2021/10/09 18:58:56;;;;;;;14.63;12.47;;;13.00;99.90;;;;;;10543735;28;20220;-86
2021/10/09 19:04:04;;;;;;;20.70;12.03;;;13.00;99.90;;;;;;10524707;28;20609;-85
2021/10/09 19:09:06;;;;;;;13.17;10.90;;;13.00;99.90;;;;;;10541400;28;20214;-86
2021/10/09 19:14:08;;;;;;;12.87;11.67;;;13.00;99.90;;;;;;10550092;28;20195;-86
2021/10/09 19:19:14;;;;;;;12.17;10.93;;;12.90;99.90;;;;;;10558689;28;20298;-85
2021/10/09 19:24:16;;;;;;;12.13;10.47;;;12.90;99.90;;;;;;10535175;28;20538;-86
2021/10/09 19:29:18;;;;;;;12.40;11.30;;;12.90;99.90;;;;;;10545548;28;20323;-85
2021/10/09 19:34:31;;;;;;;12.93;11.83;;;12.80;99.90;;;;;;10538682;28;20191;-85
2021/10/09 19:39:33;;;;;;;12.00;10.80;;;12.80;99.90;;;;;;10573612;28;20238;-84
2021/10/09 19:44:36;;;;;;;11.93;10.83;;;12.80;99.90;;;;;;10519774;28;20220;-85
2021/10/09 19:49:39;;;;;;;13.30;10.07;;;12.80;99.90;;;;;;10538701;28;20223;-85
2021/10/09 19:54:43;;;;;;;13.53;10.47;;;12.80;99.90;;;;;;10516781;28;20647;-85
2021/10/09 19:59:46;;;;;;;12.37;11.07;;;12.80;99.90;;;;;;10541778;28;21104;-85
2021/10/09 20:04:49;;;;;;;11.70;10.60;;;12.80;99.90;;;;;;10534045;28;20227;-85
2021/10/09 20:09:56;;;;;;;11.83;10.73;;;12.80;99.90;;;;;;10572808;28;20242;-85
2021/10/09 20:14:58;;;;;;;10.70;9.70;;;12.80;99.90;;;;;;10540669;28;20203;-85
2021/10/09 20:20:12;;;;;;;14.00;10.73;;;12.80;99.90;;;;;;10572744;28;20223;-85
2021/10/09 20:25:17;;;;;;;12.77;10.40;;;12.70;99.90;;;;;;10562658;28;20211;-86
2021/10/09 20:30:19;;;;;;;11.13;10.13;;;12.60;99.90;;;;;;10566156;28;20226;-85
2021/10/09 20:35:23;;;;;;;11.60;10.50;;;12.60;99.90;;;;;;10542171;28;20201;-86
2021/10/09 20:40:27;;;;;;;10.70;9.80;;;12.50;99.90;;;;;;10558209;28;20223;-85
2021/10/09 20:45:30;;;;;;;12.10;11.00;;;12.40;99.90;;;;;;10553231;28;20227;-86
2021/10/09 20:50:33;;;;;;;12.20;10.90;;;12.30;99.90;;;;;;10563842;28;20215;-86
2021/10/09 20:55:40;;;;;;;13.97;12.30;;;12.30;99.90;;;;;;10559852;28;20678;-86
2021/10/09 21:00:42;;;;;;;12.90;11.50;;;12.30;99.90;;;;;;10562595;28;20301;-85
2021/10/09 21:05:46;;;;;;;12.70;11.50;;;12.20;99.90;;;;;;10556949;28;20219;-86
2021/10/09 21:11:05;;;;;;;12.27;11.07;;;12.20;99.90;;;;;;10574685;28;20310;-86
2021/10/09 21:27:00;;;;;;;12.80;11.60;;;12.00;99.90;;;;;;10512670;28;20702;-86
2021/10/09 21:32:03;;;;;;;12.23;11.13;;;11.90;99.90;;;;;;10559417;28;20662;-86
2021/10/09 21:37:08;;;;;;;15.87;11.40;;;11.90;99.90;;;;;;10546337;28;20256;-86
2021/10/09 21:42:10;;;;;;;11.80;10.60;;;11.80;99.90;;;;;;10547871;28;20206;-85
2021/10/09 21:47:12;;;;;;;12.57;11.33;;;11.70;99.90;;;;;;10581390;28;20239;-86
2021/10/09 21:52:15;;;;;;;12.33;11.00;;;11.70;99.90;;;;;;10577357;28;20243;-86
2021/10/09 21:57:26;;;;;;;11.30;10.20;;;11.70;99.90;;;;;;10569713;28;20223;-86
2021/10/09 22:19:19;;;;;;;12.13;11.00;;;11.50;99.90;;;;;;10560929;28;20219;-86
2021/10/09 22:35:01;;;;;;;13.20;11.20;;;11.30;99.90;;;;;;10578741;28;20646;-86
2021/10/09 22:40:07;;;;;;;13.90;12.20;;;11.30;99.90;;;;;;10568278;28;20222;-85
2021/10/09 22:45:53;;;;;;;12.33;11.13;;;11.30;99.90;;;;;;10537086;28;20223;-85
2021/10/09 22:50:56;;;;;;;12.57;11.03;;;11.20;99.90;;;;;;10546019;28;20313;-85
2021/10/09 22:56:03;;;;;;;12.93;11.50;;;11.20;99.90;;;;;;10579292;28;20198;-85
2021/10/09 23:01:05;;;;;;;13.13;11.80;;;11.20;99.90;;;;;;10552076;28;20242;-85
2021/10/09 23:06:07;;;;;;;13.17;11.67;;;11.20;99.90;;;;;;10573576;28;20247;-85
2021/10/09 23:11:10;;;;;;;12.70;11.27;;;11.10;99.90;;;;;;10552141;28;20727;-85
2021/10/09 23:16:12;;;;;;;12.60;11.40;;;11.10;99.90;;;;;;10548244;28;20199;-85
2021/10/09 23:21:14;;;;;;;11.90;10.80;;;11.10;99.90;;;;;;10558989;28;20303;-85
2021/10/09 23:26:18;;;;;;;13.30;11.90;;;11.10;99.90;;;;;;10553468;28;20710;-85
2021/10/09 23:31:20;;;;;;;15.23;12.20;;;11.00;99.90;;;;;;10559130;28;20234;-85
2021/10/09 23:36:23;;;;;;;14.80;13.30;;;11.00;99.90;;;;;;10552932;28;20617;-85
2021/10/09 23:41:26;;;;;;;13.20;11.77;;;10.90;99.90;;;;;;10532002;28;20227;-85
2021/10/09 23:46:29;;;;;;;14.23;12.90;;;10.90;99.90;;;;;;10556786;28;20748;-85
2021/10/09 23:51:31;;;;;;;14.53;13.23;;;10.90;99.90;;;;;;10540838;28;20234;-85
2021/10/09 23:56:34;;;;;;;17.37;13.10;;;10.90;99.90;;;;;;10539823;28;20202;-85
